Time;durP1;ratioP1;P1;durP2;ratioP2;P2;SDS_P1;SDS_P2;PMS_P1;PMS_P2;Temp;Humidity;BMP_temperature;BMP_pressure;BME280_temperature;BME280_humidity;BME280_pressure;Samples;Min_cycle;Max_cycle;Signal;HPM_P1;HPM_P2
2023/05/15 00:00:11;;;;;;;6.13;5.53;;;10.10;99.90;;;;;;5031162;28;20281;-43
2023/05/15 00:02:43;;;;;;;6.80;5.40;;;10.10;99.90;;;;;;5057115;28;20222;-40
2023/05/15 00:05:10;;;;;;;5.73;5.07;;;10.10;99.90;;;;;;5035307;28;20279;-41
2023/05/15 00:07:37;;;;;;;5.63;5.13;;;10.10;99.90;;;;;;5053805;28;20199;-39
2023/05/15 00:10:03;;;;;;;6.63;5.47;;;10.10;99.90;;;;;;5046425;28;20209;-40
2023/05/15 00:12:29;;;;;;;6.20;5.60;;;10.10;99.90;;;;;;5057468;28;20224;-41
2023/05/15 00:14:54;;;;;;;6.33;5.30;;;10.10;99.90;;;;;;5035242;28;20217;-40
2023/05/15 00:17:21;;;;;;;6.13;5.10;;;10.00;99.90;;;;;;5061246;28;20281;-41
2023/05/15 00:19:47;;;;;;;6.23;5.40;;;9.90;99.90;;;;;;5064426;28;20186;-41
2023/05/15 00:22:12;;;;;;;6.47;5.13;;;9.90;99.90;;;;;;5049534;28;20209;-41
2023/05/15 00:24:38;;;;;;;5.57;5.00;;;9.90;99.90;;;;;;5042353;28;20433;-41
2023/05/15 00:27:04;;;;;;;6.63;5.63;;;9.80;99.90;;;;;;5067800;28;20232;-41
2023/05/15 00:29:30;;;;;;;8.10;5.90;;;9.90;99.90;;;;;;5044053;28;20182;-41
2023/05/15 00:31:56;;;;;;;7.97;5.63;;;9.90;99.90;;;;;;5041627;28;20191;-41
2023/05/15 00:34:24;;;;;;;9.87;6.03;;;9.90;99.90;;;;;;5042470;28;20285;-40
2023/05/15 00:36:50;;;;;;;6.53;5.43;;;9.80;99.90;;;;;;5062158;28;20268;-41
2023/05/15 00:39:16;;;;;;;7.97;5.73;;;9.80;99.90;;;;;;5029822;28;20231;-41
2023/05/15 00:41:44;;;;;;;6.57;5.93;;;9.80;99.90;;;;;;5039166;28;20283;-39
2023/05/15 00:44:11;;;;;;;6.20;5.60;;;9.90;99.90;;;;;;5067445;28;20223;-41
2023/05/15 00:46:38;;;;;;;6.57;5.40;;;9.80;99.90;;;;;;5025725;28;20213;-41
2023/05/15 00:49:05;;;;;;;8.87;5.77;;;9.80;99.90;;;;;;5045765;28;20182;-41
2023/05/15 00:51:31;;;;;;;6.17;5.37;;;9.90;99.90;;;;;;5057049;28;20193;-41
2023/05/15 00:53:58;;;;;;;7.73;6.07;;;9.80;99.90;;;;;;5039400;28;20205;-41
2023/05/15 00:56:26;;;;;;;6.17;5.33;;;9.80;99.90;;;;;;5042088;28;20174;-40
2023/05/15 00:58:53;;;;;;;6.20;5.60;;;9.90;99.90;;;;;;5028616;28;20194;-41
2023/05/15 01:01:19;;;;;;;6.13;5.53;;;9.90;99.90;;;;;;5043939;28;20268;-39
2023/05/15 01:03:45;;;;;;;6.80;5.70;;;9.90;99.90;;;;;;5032116;28;20320;-37
2023/05/15 01:06:11;;;;;;;6.83;5.90;;;9.90;99.90;;;;;;5050852;28;20173;-41
2023/05/15 01:08:44;;;;;;;5.90;5.13;;;9.90;99.90;;;;;;5026380;28;20177;-39
2023/05/15 01:11:15;;;;;;;7.30;5.53;;;9.90;99.90;;;;;;5058921;28;20170;-40
2023/05/15 01:13:41;;;;;;;5.93;5.03;;;9.90;99.90;;;;;;5020658;28;20209;-41
2023/05/15 01:16:08;;;;;;;7.07;5.70;;;9.90;99.90;;;;;;5040337;28;20178;-40
2023/05/15 01:18:34;;;;;;;5.73;5.20;;;9.90;99.90;;;;;;5040595;28;20178;-39
2023/05/15 01:21:09;;;;;;;5.63;5.07;;;9.90;99.90;;;;;;5042632;28;20213;-41
2023/05/15 01:23:59;;;;;;;6.20;5.50;;;9.90;99.90;;;;;;5034602;28;20202;-38
2023/05/15 01:27:07;;;;;;;5.80;5.20;;;9.80;99.90;;;;;;5034062;28;20185;-38
2023/05/15 01:29:43;;;;;;;5.87;5.20;;;9.80;99.90;;;;;;5041569;28;20268;-40
2023/05/15 01:32:18;;;;;;;7.17;5.03;;;9.80;99.90;;;;;;5046095;28;20181;-39
2023/05/15 01:35:01;;;;;;;5.57;4.97;;;9.80;99.90;;;;;;5036364;28;20201;-40
2023/05/15 01:37:29;;;;;;;6.53;5.80;;;9.90;99.90;;;;;;5049758;28;20269;-41
2023/05/15 01:40:00;;;;;;;7.17;5.40;;;9.90;99.90;;;;;;5035414;28;20181;-40
2023/05/15 01:42:32;;;;;;;6.20;5.47;;;9.90;99.90;;;;;;5046945;28;20224;-39
2023/05/15 01:45:03;;;;;;;7.07;5.33;;;10.00;99.90;;;;;;5035140;28;20280;-40
2023/05/15 01:47:42;;;;;;;6.20;5.40;;;10.00;99.90;;;;;;5046457;28;20182;-40
2023/05/15 01:50:13;;;;;;;6.07;5.13;;;10.00;99.90;;;;;;5026608;28;20235;-41
2023/05/15 01:52:43;;;;;;;6.20;5.40;;;10.00;99.90;;;;;;5061869;28;20180;-40
2023/05/15 01:55:12;;;;;;;7.23;5.10;;;10.00;99.90;;;;;;5035833;28;20375;-41
2023/05/15 01:57:39;;;;;;;5.50;5.00;;;10.00;99.90;;;;;;5033348;28;20241;-41
2023/05/15 02:00:08;;;;;;;6.20;5.57;;;10.10;99.90;;;;;;5040579;28;20177;-41
2023/05/15 02:02:41;;;;;;;5.73;5.13;;;10.10;99.90;;;;;;5050219;28;20221;-39
2023/05/15 02:05:08;;;;;;;6.60;5.20;;;10.10;99.90;;;;;;5043628;28;20213;-40
2023/05/15 02:07:34;;;;;;;5.83;5.27;;;10.10;99.90;;;;;;5045197;28;20204;-41
2023/05/15 02:10:01;;;;;;;6.33;5.53;;;10.10;99.90;;;;;;5043105;28;20181;-38
2023/05/15 02:12:30;;;;;;;5.90;5.30;;;10.10;99.90;;;;;;5049846;28;20193;-40
2023/05/15 02:14:58;;;;;;;7.63;5.43;;;10.20;99.90;;;;;;5024615;28;20189;-39
2023/05/15 02:17:24;;;;;;;6.20;5.47;;;10.20;99.90;;;;;;5046726;28;20185;-41
2023/05/15 02:19:50;;;;;;;6.13;5.50;;;10.20;99.90;;;;;;5018416;28;20182;-39
2023/05/15 02:22:16;;;;;;;6.53;5.67;;;10.20;99.90;;;;;;5032500;28;20205;-40
2023/05/15 02:24:41;;;;;;;6.23;5.63;;;10.20;99.90;;;;;;5031950;28;20197;-38
2023/05/15 02:27:20;;;;;;;6.63;6.03;;;10.30;99.90;;;;;;5032710;28;20340;-39
2023/05/15 02:29:55;;;;;;;6.57;5.80;;;10.20;99.90;;;;;;5064596;28;20207;-38
2023/05/15 02:32:46;;;;;;;7.47;5.37;;;10.20;99.90;;;;;;5038826;28;20186;-40
2023/05/15 02:35:34;;;;;;;6.10;5.50;;;10.20;99.90;;;;;;5060873;28;20189;-35
2023/05/15 02:38:06;;;;;;;6.93;6.23;;;10.20;99.90;;;;;;5037175;28;20187;-37
2023/05/15 02:40:35;;;;;;;6.60;5.90;;;10.20;99.90;;;;;;5039170;28;20194;-37
2023/05/15 02:43:01;;;;;;;7.60;6.80;;;10.20;99.90;;;;;;5032228;28;20225;-40
2023/05/15 02:45:29;;;;;;;7.23;6.20;;;10.20;99.90;;;;;;5048282;28;20201;-41
2023/05/15 02:47:55;;;;;;;6.77;5.80;;;10.20;99.90;;;;;;5044206;28;20204;-41
2023/05/15 02:50:21;;;;;;;7.00;6.30;;;10.20;99.90;;;;;;5050275;28;20182;-41
2023/05/15 02:52:47;;;;;;;9.27;6.70;;;10.10;99.90;;;;;;5027831;28;20297;-36
2023/05/15 02:55:13;;;;;;;7.73;6.33;;;10.10;99.90;;;;;;5065371;28;20182;-41
2023/05/15 02:57:39;;;;;;;7.27;6.53;;;10.10;99.90;;;;;;5036268;28;20235;-39
2023/05/15 03:00:07;;;;;;;6.90;6.20;;;10.00;99.90;;;;;;5035035;28;20197;-41
2023/05/15 03:02:33;;;;;;;7.17;6.47;;;10.00;99.90;;;;;;5047772;28;20206;-39
2023/05/15 03:04:59;;;;;;;7.37;6.23;;;10.00;99.90;;;;;;5064356;28;20187;-39
2023/05/15 03:07:25;;;;;;;7.83;6.57;;;10.00;99.90;;;;;;5042241;28;20181;-41
2023/05/15 03:09:51;;;;;;;7.07;6.37;;;10.10;99.90;;;;;;5062130;28;20181;-41
2023/05/15 03:12:17;;;;;;;8.57;5.67;;;10.10;99.90;;;;;;5038504;28;20185;-41
2023/05/15 03:14:43;;;;;;;7.87;6.03;;;10.20;99.90;;;;;;5029080;28;20253;-38
2023/05/15 03:17:09;;;;;;;6.90;6.20;;;10.10;99.90;;;;;;5062198;28;20190;-42
2023/05/15 03:19:34;;;;;;;6.20;5.60;;;10.10;99.90;;;;;;5034664;28;20188;-39
2023/05/15 03:22:00;;;;;;;5.90;5.30;;;10.20;99.90;;;;;;5039157;28;20205;-41
2023/05/15 03:24:26;;;;;;;6.90;5.53;;;10.20;99.90;;;;;;5070907;28;20244;-39
2023/05/15 03:26:52;;;;;;;6.43;5.73;;;10.20;99.90;;;;;;5064452;28;20170;-38
2023/05/15 03:29:18;;;;;;;6.67;5.57;;;10.20;99.90;;;;;;5040292;28;20294;-41
2023/05/15 03:31:43;;;;;;;5.90;5.30;;;10.30;99.90;;;;;;5051608;28;20235;-41
2023/05/15 03:34:09;;;;;;;6.67;5.43;;;10.30;99.90;;;;;;5019057;28;20206;-41
2023/05/15 03:36:35;;;;;;;5.97;5.37;;;10.30;99.90;;;;;;5044097;28;20191;-41
2023/05/15 03:39:01;;;;;;;5.83;5.33;;;10.30;99.90;;;;;;5045351;28;20540;-39
2023/05/15 03:41:27;;;;;;;6.00;5.30;;;10.30;99.90;;;;;;5043831;28;20182;-41
2023/05/15 03:43:56;;;;;;;6.57;5.93;;;10.30;99.90;;;;;;5036895;28;20305;-41
2023/05/15 03:46:26;;;;;;;8.70;6.23;;;10.30;99.90;;;;;;5054992;28;20188;-41
2023/05/15 03:48:54;;;;;;;6.27;5.67;;;10.30;99.90;;;;;;5072162;28;20181;-39
2023/05/15 03:51:23;;;;;;;6.30;5.70;;;10.30;99.90;;;;;;5051138;28;20280;-43
2023/05/15 03:53:53;;;;;;;8.20;6.13;;;10.30;99.90;;;;;;5038301;28;20202;-38
2023/05/15 03:56:22;;;;;;;6.93;5.70;;;10.30;99.90;;;;;;5046108;28;20180;-40
2023/05/15 03:58:47;;;;;;;6.97;5.80;;;10.30;99.90;;;;;;5046354;28;20230;-39
2023/05/15 04:01:14;;;;;;;9.23;5.70;;;10.30;99.90;;;;;;5044671;28;20186;-43
2023/05/15 04:03:41;;;;;;;5.57;5.07;;;10.30;99.90;;;;;;5040054;28;20222;-41
2023/05/15 04:06:07;;;;;;;5.60;5.10;;;10.30;99.90;;;;;;5042000;28;20191;-40
2023/05/15 04:08:33;;;;;;;6.07;5.30;;;10.40;99.90;;;;;;5059974;28;20648;-38
2023/05/15 04:10:59;;;;;;;5.47;4.97;;;10.40;99.90;;;;;;5062910;28;20332;-39
2023/05/15 04:13:24;;;;;;;6.50;5.37;;;10.40;99.90;;;;;;5065441;28;20232;-39
2023/05/15 04:15:50;;;;;;;7.47;5.83;;;10.50;99.90;;;;;;5041371;28;20239;-39
2023/05/15 04:18:16;;;;;;;7.57;5.73;;;10.50;99.90;;;;;;5051040;28;20206;-41
2023/05/15 04:20:42;;;;;;;6.13;5.37;;;10.50;99.90;;;;;;5066750;28;20230;-39
2023/05/15 04:23:07;;;;;;;6.43;5.00;;;10.50;99.90;;;;;;5037736;28;20262;-39
2023/05/15 04:25:33;;;;;;;5.80;5.20;;;10.50;99.90;;;;;;5070598;28;20270;-38
2023/05/15 04:28:00;;;;;;;7.13;5.13;;;10.60;99.90;;;;;;5063346;28;20176;-44
2023/05/15 04:30:26;;;;;;;5.40;4.90;;;10.60;99.90;;;;;;5032283;28;20238;-41
2023/05/15 04:32:52;;;;;;;6.33;5.17;;;10.50;99.90;;;;;;5037641;28;20198;-39
2023/05/15 04:35:18;;;;;;;5.70;5.10;;;10.50;99.90;;;;;;5044025;28;20255;-41
2023/05/15 04:37:46;;;;;;;5.50;5.00;;;10.60;99.90;;;;;;5062237;28;20204;-41
2023/05/15 04:40:15;;;;;;;6.30;5.70;;;10.50;99.90;;;;;;5034959;28;20181;-40
2023/05/15 04:42:40;;;;;;;7.07;5.83;;;10.50;99.90;;;;;;5041408;28;20209;-38
2023/05/15 04:45:07;;;;;;;6.60;5.70;;;10.60;99.90;;;;;;5038393;28;20190;-38
2023/05/15 04:47:32;;;;;;;6.40;4.80;;;10.60;99.90;;;;;;5043333;28;20232;-41
2023/05/15 04:49:58;;;;;;;7.33;5.50;;;10.60;99.90;;;;;;5045040;28;20178;-41
2023/05/15 04:52:24;;;;;;;8.43;5.43;;;10.50;99.90;;;;;;5030840;28;20186;-39
2023/05/15 04:54:51;;;;;;;6.37;5.50;;;10.50;99.90;;;;;;5042021;28;20194;-41
2023/05/15 04:57:17;;;;;;;7.97;5.77;;;10.50;99.90;;;;;;5041171;28;20178;-42
2023/05/15 04:59:45;;;;;;;6.37;5.73;;;10.50;99.90;;;;;;5027793;28;20239;-43
2023/05/15 05:02:12;;;;;;;7.27;6.10;;;10.50;99.90;;;;;;5042542;28;20237;-39
2023/05/15 05:04:41;;;;;;;6.00;5.40;;;10.60;99.90;;;;;;5060393;28;20190;-39
2023/05/15 05:07:11;;;;;;;6.87;5.80;;;10.60;99.90;;;;;;5029087;28;20251;-36
2023/05/15 05:09:40;;;;;;;6.07;5.47;;;10.60;99.90;;;;;;5055644;28;20189;-38
2023/05/15 05:12:08;;;;;;;5.53;5.03;;;10.60;99.90;;;;;;5033010;28;20224;-39
2023/05/15 05:14:39;;;;;;;5.97;5.37;;;10.70;99.90;;;;;;5039665;28;20204;-38
2023/05/15 05:17:05;;;;;;;6.17;5.57;;;10.70;99.90;;;;;;5059293;28;20240;-38
2023/05/15 05:19:32;;;;;;;5.83;5.10;;;10.70;99.90;;;;;;5041005;28;20174;-38
2023/05/15 05:22:00;;;;;;;7.30;5.47;;;10.70;99.90;;;;;;5041523;28;20204;-37
2023/05/15 05:24:27;;;;;;;5.77;4.90;;;10.80;99.90;;;;;;5028434;28;20235;-40
2023/05/15 05:26:53;;;;;;;5.47;4.97;;;10.80;99.90;;;;;;5057751;28;20192;-38
2023/05/15 05:29:20;;;;;;;5.70;5.13;;;10.80;99.90;;;;;;5059634;28;20175;-39
2023/05/15 05:31:46;;;;;;;5.33;4.80;;;10.80;99.90;;;;;;5043748;28;20181;-38
2023/05/15 05:34:12;;;;;;;6.20;5.30;;;10.80;99.90;;;;;;5058395;28;20213;-38
2023/05/15 05:36:38;;;;;;;5.80;5.20;;;10.90;99.90;;;;;;5058728;28;20178;-36
2023/05/15 05:39:04;;;;;;;5.57;4.50;;;11.00;99.90;;;;;;5059816;28;20177;-37
2023/05/15 05:41:30;;;;;;;5.97;5.37;;;11.00;99.90;;;;;;5061303;28;20184;-37
2023/05/15 05:43:56;;;;;;;7.53;4.77;;;11.10;99.90;;;;;;5060285;28;20218;-37
2023/05/15 05:46:23;;;;;;;6.53;5.53;;;11.20;99.90;;;;;;5028839;28;20189;-39
2023/05/15 05:48:49;;;;;;;6.93;5.50;;;11.20;99.90;;;;;;5063115;28;20167;-40
2023/05/15 05:51:15;;;;;;;5.77;5.27;;;11.30;99.90;;;;;;5041581;28;20183;-40
2023/05/15 05:53:41;;;;;;;6.53;5.70;;;11.40;99.90;;;;;;5059062;28;20207;-40
2023/05/15 05:56:07;;;;;;;6.47;5.13;;;11.40;99.90;;;;;;5059928;28;20174;-38
2023/05/15 05:58:33;;;;;;;7.43;5.33;;;11.50;99.90;;;;;;5041432;28;20178;-42
2023/05/15 06:01:01;;;;;;;7.50;5.53;;;11.50;99.90;;;;;;5056611;28;20187;-42
2023/05/15 06:03:28;;;;;;;5.83;5.20;;;11.60;99.90;;;;;;5055799;28;20271;-40
2023/05/15 06:05:54;;;;;;;6.20;5.60;;;11.60;99.90;;;;;;5042049;28;20318;-39
2023/05/15 06:08:20;;;;;;;8.80;6.33;;;11.70;99.90;;;;;;5059930;28;20178;-40
2023/05/15 06:10:47;;;;;;;8.30;6.00;;;11.70;99.90;;;;;;5041266;28;20302;-39
2023/05/15 06:13:13;;;;;;;6.30;5.70;;;11.80;99.90;;;;;;5039965;28;20204;-41
2023/05/15 06:15:40;;;;;;;6.63;6.00;;;11.90;99.90;;;;;;5057861;28;20306;-41
2023/05/15 06:18:06;;;;;;;7.97;5.47;;;12.10;99.90;;;;;;5050925;28;20183;-40
2023/05/15 06:20:32;;;;;;;6.50;5.90;;;12.10;99.90;;;;;;5062925;28;20179;-40
2023/05/15 06:22:57;;;;;;;6.47;5.87;;;12.10;99.90;;;;;;5038529;28;20676;-42
2023/05/15 06:25:23;;;;;;;6.20;5.60;;;12.20;99.90;;;;;;5026197;28;20208;-42
2023/05/15 06:27:49;;;;;;;6.27;5.20;;;12.30;99.90;;;;;;5058117;28;20236;-42
2023/05/15 06:30:15;;;;;;;6.60;5.90;;;12.30;99.90;;;;;;5037509;28;20275;-42
2023/05/15 06:32:41;;;;;;;6.57;5.70;;;12.40;99.90;;;;;;5070495;28;20195;-40
2023/05/15 06:35:08;;;;;;;6.87;6.10;;;12.40;99.90;;;;;;5035186;28;20318;-41
2023/05/15 06:37:36;;;;;;;5.90;5.30;;;12.60;99.90;;;;;;5020850;28;20199;-42
2023/05/15 06:40:03;;;;;;;8.50;6.20;;;12.80;99.90;;;;;;5034877;28;20189;-42
2023/05/15 06:42:30;;;;;;;6.23;5.63;;;12.90;99.90;;;;;;5050202;28;20206;-41
2023/05/15 06:44:56;;;;;;;6.50;5.90;;;13.10;99.90;;;;;;5043339;28;20184;-38
2023/05/15 06:47:21;;;;;;;6.50;5.80;;;13.30;99.90;;;;;;5041805;28;20180;-40
2023/05/15 06:49:47;;;;;;;6.03;5.43;;;13.40;99.90;;;;;;5037772;28;20181;-40
2023/05/15 06:52:13;;;;;;;6.83;6.13;;;13.60;99.90;;;;;;5040523;28;20193;-41
2023/05/15 06:54:40;;;;;;;6.37;5.77;;;13.70;99.90;;;;;;5039268;28;20217;-41
2023/05/15 06:57:06;;;;;;;7.30;5.87;;;13.70;99.90;;;;;;5054801;28;20244;-41
2023/05/15 06:59:34;;;;;;;6.70;6.03;;;13.80;99.90;;;;;;5062630;28;20188;-41
2023/05/15 07:02:01;;;;;;;6.57;5.70;;;13.90;99.90;;;;;;5053107;28;20214;-39
2023/05/15 07:04:27;;;;;;;5.97;5.37;;;13.90;99.90;;;;;;5050837;28;20281;-41
2023/05/15 07:06:53;;;;;;;5.57;5.07;;;13.90;99.90;;;;;;5057581;28;20180;-41
2023/05/15 07:09:19;;;;;;;6.47;5.80;;;14.00;99.90;;;;;;5042155;28;20169;-39
2023/05/15 07:11:45;;;;;;;7.07;5.80;;;14.00;99.90;;;;;;5038605;28;20178;-41
2023/05/15 07:14:12;;;;;;;7.53;6.47;;;14.10;99.90;;;;;;5055741;28;20229;-39
2023/05/15 07:16:38;;;;;;;6.27;5.67;;;14.10;99.90;;;;;;5055908;28;20176;-41
2023/05/15 07:19:04;;;;;;;6.47;5.83;;;14.10;99.90;;;;;;5056618;28;20177;-41
2023/05/15 07:21:31;;;;;;;6.57;5.83;;;14.00;99.90;;;;;;5038812;28;20193;-41
2023/05/15 07:23:56;;;;;;;6.77;5.77;;;14.10;99.90;;;;;;5030394;28;20198;-41
2023/05/15 07:26:22;;;;;;;6.13;5.53;;;14.20;99.90;;;;;;5059728;28;20182;-41
2023/05/15 07:28:48;;;;;;;7.40;5.60;;;14.30;99.90;;;;;;5058684;28;20196;-40
2023/05/15 07:31:14;;;;;;;6.60;5.97;;;14.30;99.90;;;;;;5057655;28;20255;-41
2023/05/15 07:33:40;;;;;;;6.90;5.63;;;14.40;99.90;;;;;;5030742;28;20205;-41
2023/05/15 07:36:06;;;;;;;6.63;5.93;;;14.40;99.90;;;;;;5040530;28;20193;-41
2023/05/15 07:38:31;;;;;;;7.00;6.30;;;14.50;99.90;;;;;;5039712;28;20185;-40
2023/05/15 07:40:57;;;;;;;6.20;5.60;;;14.40;99.90;;;;;;5058230;28;20277;-41
2023/05/15 07:43:23;;;;;;;6.83;5.33;;;14.60;99.90;;;;;;5045318;28;20304;-41
2023/05/15 07:45:49;;;;;;;7.13;6.53;;;14.70;99.90;;;;;;5042641;28;20174;-41
2023/05/15 07:48:17;;;;;;;6.30;5.70;;;14.90;99.90;;;;;;5044759;28;20185;-41
2023/05/15 07:50:45;;;;;;;6.30;5.70;;;15.10;99.90;;;;;;5040451;28;20241;-41
2023/05/15 07:53:12;;;;;;;5.33;4.83;;;15.30;99.90;;;;;;5059101;28;20213;-41
2023/05/15 07:55:39;;;;;;;5.80;5.20;;;15.60;99.90;;;;;;5041548;28;20193;-39
2023/05/15 07:58:06;;;;;;;5.83;5.23;;;15.60;99.90;;;;;;5059950;28;20193;-41
2023/05/15 08:00:32;;;;;;;6.87;5.67;;;15.80;99.90;;;;;;5060243;28;20190;-42
2023/05/15 08:02:58;;;;;;;6.20;5.60;;;15.80;99.90;;;;;;5027386;28;20218;-41
2023/05/15 08:05:24;;;;;;;6.00;5.13;;;15.80;99.90;;;;;;5034666;28;20178;-41
2023/05/15 08:07:50;;;;;;;6.97;5.50;;;15.90;99.90;;;;;;5060959;28;20177;-41
2023/05/15 08:10:16;;;;;;;8.03;5.77;;;15.90;99.90;;;;;;5043608;28;20178;-41
2023/05/15 08:12:46;;;;;;;5.37;4.87;;;16.00;99.90;;;;;;5042096;28;20197;-41
2023/05/15 08:15:13;;;;;;;6.57;5.80;;;16.20;99.90;;;;;;5042327;28;20186;-41
2023/05/15 08:17:39;;;;;;;8.23;6.90;;;16.30;99.90;;;;;;5042265;28;20174;-41
2023/05/15 08:20:08;;;;;;;5.87;5.37;;;16.30;99.90;;;;;;5037138;28;20192;-42
2023/05/15 08:22:34;;;;;;;7.13;6.00;;;16.40;99.90;;;;;;5039593;28;20186;-42
2023/05/15 08:25:02;;;;;;;5.70;5.20;;;16.70;99.90;;;;;;5036910;28;20185;-41
2023/05/15 08:27:28;;;;;;;4.95;4.53;;;16.80;99.90;;;;;;5055684;28;20176;-42
2023/05/15 08:29:54;;;;;;;4.95;4.55;;;17.10;99.90;;;;;;5067455;28;20178;-42
2023/05/15 08:32:21;;;;;;;4.95;4.35;;;17.20;99.90;;;;;;5035215;28;20215;-41
2023/05/15 08:34:47;;;;;;;7.45;6.60;;;17.30;99.90;;;;;;5040503;28;20284;-41
2023/05/15 08:37:14;;;;;;;5.88;5.20;;;17.40;99.90;;;;;;5058282;28;20311;-41
2023/05/15 08:39:40;;;;;;;5.38;4.88;;;17.60;99.90;;;;;;5046268;28;20178;-41
2023/05/15 08:42:31;;;;;;;5.53;5.03;;;17.80;99.90;;;;;;5034476;28;20212;-41
2023/05/15 08:44:59;;;;;;;7.47;5.80;;;17.80;99.90;;;;;;5066670;28;20185;-42
2023/05/15 08:47:28;;;;;;;5.32;4.80;;;17.70;99.90;;;;;;5045909;28;20208;-42
2023/05/15 08:50:03;;;;;;;5.45;4.90;;;17.40;99.90;;;;;;5039364;28;20174;-42
2023/05/15 08:52:31;;;;;;;5.15;4.72;;;17.30;99.90;;;;;;5058844;28;20181;-42
2023/05/15 08:54:58;;;;;;;5.68;4.15;;;17.20;99.90;;;;;;5053872;28;20234;-42
2023/05/15 08:57:25;;;;;;;3.90;3.47;;;17.20;99.90;;;;;;5059533;28;20194;-41
2023/05/15 08:59:52;;;;;;;3.95;3.65;;;17.20;99.90;;;;;;5047608;28;20180;-41
2023/05/15 09:02:19;;;;;;;5.47;4.80;;;17.30;99.90;;;;;;5045250;28;20202;-41
2023/05/15 09:04:45;;;;;;;5.72;5.13;;;17.50;99.90;;;;;;5039727;28;20205;-42
2023/05/15 09:07:11;;;;;;;4.70;4.30;;;17.50;99.90;;;;;;5049471;28;20189;-41
2023/05/15 09:09:38;;;;;;;5.60;4.28;;;17.20;99.90;;;;;;5017514;28;20174;-42
2023/05/15 09:12:06;;;;;;;4.20;3.88;;;17.20;99.90;;;;;;5045066;28;20234;-41
2023/05/15 09:14:32;;;;;;;4.90;4.13;;;17.40;99.90;;;;;;5037223;28;20235;-41
2023/05/15 09:16:58;;;;;;;4.60;4.20;;;17.70;99.90;;;;;;5064182;28;20178;-41
2023/05/15 09:19:24;;;;;;;4.93;4.53;;;18.10;99.90;;;;;;5041771;28;20234;-41
2023/05/15 09:21:50;;;;;;;4.97;4.57;;;18.50;99.90;;;;;;5039830;28;20296;-41
2023/05/15 09:24:24;;;;;;;4.30;3.83;;;18.50;99.90;;;;;;5060668;28;20206;-42
2023/05/15 09:27:03;;;;;;;3.83;3.53;;;18.80;99.90;;;;;;5048211;28;20188;-41
2023/05/15 09:29:30;;;;;;;5.03;3.72;;;18.90;99.90;;;;;;5052424;28;20173;-41
2023/05/15 09:32:02;;;;;;;3.78;3.47;;;19.20;99.90;;;;;;5053442;28;20181;-41
2023/05/15 09:34:32;;;;;;;5.47;3.67;;;19.50;99.90;;;;;;5033507;28;20217;-41
2023/05/15 09:37:00;;;;;;;3.65;3.35;;;19.70;99.90;;;;;;5020451;28;20206;-41
2023/05/15 09:39:26;;;;;;;3.92;3.63;;;19.70;99.90;;;;;;5033283;28;20182;-41
2023/05/15 09:41:53;;;;;;;3.45;3.15;;;19.80;99.90;;;;;;5033111;28;20252;-42
2023/05/15 09:44:25;;;;;;;3.58;3.28;;;20.10;99.90;;;;;;5020806;28;20233;-42
2023/05/15 09:46:51;;;;;;;3.53;3.22;;;20.40;99.90;;;;;;5041728;28;20249;-41
2023/05/15 09:49:18;;;;;;;3.85;3.55;;;20.60;99.90;;;;;;5033149;28;20185;-42
2023/05/15 09:51:45;;;;;;;3.92;3.53;;;20.90;99.90;;;;;;5037987;28;20252;-42
2023/05/15 09:54:16;;;;;;;4.35;3.40;;;21.10;99.90;;;;;;5027354;28;20220;-41
2023/05/15 09:56:46;;;;;;;4.20;3.28;;;21.40;99.90;;;;;;5033336;28;20214;-41
2023/05/15 09:59:14;;;;;;;3.47;3.17;;;21.70;99.90;;;;;;5040677;28;20189;-40
2023/05/15 10:01:44;;;;;;;3.47;3.13;;;21.80;99.90;;;;;;5036237;28;20173;-41
2023/05/15 10:04:11;;;;;;;4.93;3.25;;;21.70;99.90;;;;;;5035630;28;20205;-41
2023/05/15 10:06:47;;;;;;;3.67;3.38;;;20.80;99.90;;;;;;5037542;28;20186;-41
2023/05/15 10:09:14;;;;;;;5.65;3.50;;;20.20;99.90;;;;;;5041820;28;20180;-42
2023/05/15 10:11:42;;;;;;;4.97;3.65;;;19.90;99.90;;;;;;5044272;28;20248;-42
2023/05/15 10:14:10;;;;;;;4.18;3.70;;;19.60;99.90;;;;;;5060853;28;20215;-42
2023/05/15 10:16:37;;;;;;;5.82;4.43;;;18.80;99.90;;;;;;5062801;28;20660;-41
2023/05/15 10:19:05;;;;;;;9.75;5.68;;;18.40;99.90;;;;;;5063121;28;20174;-39
2023/05/15 10:21:33;;;;;;;11.10;6.50;;;17.80;99.90;;;;;;5040511;28;20202;-39
2023/05/15 10:24:00;;;;;;;7.57;5.32;;;16.60;99.90;;;;;;5033395;28;20209;-40
2023/05/15 10:26:40;;;;;;;5.65;4.28;;;16.00;99.90;;;;;;5051467;28;20268;-41
2023/05/15 10:29:14;;;;;;;3.95;3.47;;;15.90;99.90;;;;;;5041342;28;20173;-41
2023/05/15 10:31:41;;;;;;;7.85;3.97;;;15.60;99.90;;;;;;5062439;28;20207;-39
2023/05/15 10:34:08;;;;;;;5.27;3.93;;;15.50;99.90;;;;;;5036115;28;20206;-42
2023/05/15 10:36:37;;;;;;;3.90;3.30;;;15.40;99.90;;;;;;5039221;28;20223;-41
2023/05/15 10:39:06;;;;;;;4.40;4.00;;;15.30;99.90;;;;;;5069538;28;20215;-40
2023/05/15 10:41:36;;;;;;;5.30;4.80;;;15.40;99.90;;;;;;5035372;28;20192;-42
2023/05/15 10:44:02;;;;;;;7.80;6.80;;;15.50;99.90;;;;;;5066670;28;20216;-39
2023/05/15 10:46:30;;;;;;;5.23;3.50;;;15.60;99.90;;;;;;5061994;28;20257;-42
2023/05/15 10:48:57;;;;;;;5.03;3.90;;;15.70;99.90;;;;;;5045767;28;20178;-40
2023/05/15 10:51:32;;;;;;;3.63;3.33;;;15.70;99.90;;;;;;5058502;28;20223;-42
2023/05/15 10:54:02;;;;;;;3.67;3.37;;;15.80;99.90;;;;;;5045696;28;20204;-39
2023/05/15 10:56:32;;;;;;;4.87;2.83;;;15.70;99.90;;;;;;5058783;28;20188;-40
2023/05/15 10:59:07;;;;;;;4.10;3.67;;;15.80;99.90;;;;;;5048040;28;21555;-41
2023/05/15 11:01:35;;;;;;;3.90;3.30;;;15.70;99.90;;;;;;5064136;28;20187;-41
2023/05/15 11:04:18;;;;;;;5.17;3.67;;;15.40;99.90;;;;;;5032156;28;20282;-41
2023/05/15 11:06:47;;;;;;;5.60;4.13;;;15.30;99.90;;;;;;5036029;28;20274;-39
2023/05/15 11:09:28;;;;;;;4.10;3.80;;;15.30;99.90;;;;;;5065724;28;20181;-42
2023/05/15 11:11:59;;;;;;;4.53;4.00;;;15.30;99.90;;;;;;5032266;28;20189;-39
2023/05/15 11:14:31;;;;;;;6.00;3.50;;;15.30;99.90;;;;;;5038835;28;20202;-39
2023/05/15 11:16:59;;;;;;;4.20;3.87;;;15.30;99.90;;;;;;5047903;28;20209;-39
2023/05/15 11:19:28;;;;;;;3.40;3.10;;;15.50;99.90;;;;;;5039260;28;20337;-41
2023/05/15 11:22:06;;;;;;;3.47;3.10;;;15.80;99.90;;;;;;5045964;28;20201;-41
2023/05/15 11:24:50;;;;;;;3.27;2.97;;;16.10;99.90;;;;;;5057691;28;20220;-43
2023/05/15 11:27:20;;;;;;;3.10;2.80;;;16.20;99.90;;;;;;5032972;28;20185;-41
2023/05/15 11:30:06;;;;;;;3.70;3.17;;;16.00;99.90;;;;;;5039441;28;20174;-41
2023/05/15 11:32:45;;;;;;;4.13;3.30;;;16.20;99.90;;;;;;5036752;28;20617;-41
2023/05/15 11:35:32;;;;;;;4.13;3.72;;;16.60;99.90;;;;;;5042462;28;20190;-42
2023/05/15 11:38:02;;;;;;;3.80;3.50;;;17.20;99.90;;;;;;5065937;28;20177;-41
2023/05/15 11:40:42;;;;;;;3.95;3.13;;;17.60;99.90;;;;;;5056901;28;20181;-41
2023/05/15 11:43:27;;;;;;;3.72;3.42;;;17.80;99.90;;;;;;5045615;28;20209;-41
2023/05/15 11:45:56;;;;;;;3.70;3.40;;;17.60;99.90;;;;;;5029087;28;20178;-41
2023/05/15 11:48:29;;;;;;;3.67;3.38;;;17.70;99.90;;;;;;5048543;28;20212;-41
2023/05/15 11:50:54;;;;;;;3.78;3.45;;;17.60;99.90;;;;;;5057040;28;20182;-41
2023/05/15 11:53:22;;;;;;;3.45;3.15;;;17.40;99.90;;;;;;5056406;28;20201;-41
2023/05/15 11:55:51;;;;;;;5.75;3.28;;;17.40;99.90;;;;;;5054189;28;20196;-41
2023/05/15 11:58:18;;;;;;;3.00;2.40;;;17.40;99.90;;;;;;5040502;28;20185;-41
2023/05/15 12:00:46;;;;;;;2.53;2.33;;;17.40;99.90;;;;;;5040124;28;20308;-41
2023/05/15 12:03:23;;;;;;;3.35;2.47;;;17.60;99.90;;;;;;5034146;28;20223;-41
2023/05/15 12:05:50;;;;;;;2.78;2.33;;;17.60;99.90;;;;;;5057062;28;20177;-41
2023/05/15 12:08:16;;;;;;;2.80;2.60;;;17.70;99.90;;;;;;5052649;28;20272;-42
2023/05/15 12:10:43;;;;;;;5.43;2.83;;;17.50;99.90;;;;;;5040694;28;20269;-41
2023/05/15 12:13:13;;;;;;;3.55;2.45;;;17.40;99.90;;;;;;5042020;28;20200;-41
2023/05/15 12:15:42;;;;;;;3.42;2.88;;;17.20;99.90;;;;;;5066438;28;20232;-41
2023/05/15 12:18:08;;;;;;;2.75;2.53;;;17.30;99.90;;;;;;5057807;28;20174;-40
2023/05/15 12:20:35;;;;;;;3.00;2.30;;;17.60;99.90;;;;;;5045015;28;20632;-41
2023/05/15 12:23:03;;;;;;;4.15;2.63;;;17.80;99.90;;;;;;5033498;28;20209;-43
2023/05/15 12:25:29;;;;;;;6.13;2.85;;;18.00;99.90;;;;;;5042632;28;20182;-41
2023/05/15 12:27:56;;;;;;;2.88;2.67;;;18.30;99.90;;;;;;5060191;28;20173;-41
2023/05/15 12:30:23;;;;;;;4.45;2.60;;;18.50;99.90;;;;;;5055982;28;20277;-41
2023/05/15 12:32:49;;;;;;;2.70;2.50;;;18.40;99.90;;;;;;5059432;28;20200;-41
2023/05/15 12:35:16;;;;;;;2.65;2.45;;;18.40;99.90;;;;;;5041929;28;20186;-42
2023/05/15 12:37:42;;;;;;;2.55;2.38;;;18.40;99.90;;;;;;5042082;28;20273;-42
2023/05/15 12:40:11;;;;;;;2.65;2.45;;;18.40;99.90;;;;;;5041047;28;20271;-42
2023/05/15 12:42:42;;;;;;;3.00;2.80;;;18.50;99.90;;;;;;5033175;28;20228;-40
2023/05/15 12:45:16;;;;;;;2.83;2.63;;;18.60;99.90;;;;;;5053119;28;20186;-42
2023/05/15 12:47:44;;;;;;;3.22;2.90;;;18.70;99.90;;;;;;5064598;28;20198;-41
2023/05/15 12:50:18;;;;;;;4.13;2.72;;;18.80;99.90;;;;;;5026361;28;20209;-41
2023/05/15 12:52:59;;;;;;;4.10;3.10;;;19.00;99.90;;;;;;5039796;28;20301;-41